createdAt,value
2023-11-14T00:00:36.552Z,98116.88
2023-11-14T00:03:03.775Z,98111.78
2023-11-14T00:05:35.474Z,98104.25
2023-11-14T00:08:02.451Z,98094.03
2023-11-14T00:10:29.535Z,98080.94
2023-11-14T00:12:57.406Z,98083.16
2023-11-14T00:15:27.923Z,98084.63
2023-11-14T00:17:55.460Z,98078.06
2023-11-14T00:20:24.955Z,98078.38
2023-11-14T00:22:51.793Z,98067.84
2023-11-14T00:25:18.716Z,98062.44
2023-11-14T00:27:45.533Z,98072.81
2023-11-14T00:30:14.694Z,98079.69
2023-11-14T00:32:41.829Z,98083.50
2023-11-14T00:35:09.078Z,98097.44
2023-11-14T00:37:36.005Z,98094.38
2023-11-14T00:40:05.290Z,98094.84
2023-11-14T00:42:34.921Z,98081.28
2023-11-14T00:45:01.981Z,98085.09
2023-11-14T00:47:28.885Z,98081.91
2023-11-14T00:49:55.790Z,98083.50
2023-11-14T00:52:22.677Z,98078.41
2023-11-14T00:54:49.523Z,98069.16
2023-11-14T00:57:16.508Z,98070.75
2023-11-14T00:59:43.401Z,98071.06
2023-11-14T01:02:10.665Z,98067.09
2023-11-14T01:04:40.946Z,98073.28
2023-11-14T01:07:10.435Z,98079.53
2023-11-14T01:09:37.618Z,98079.19
2023-11-14T01:12:04.955Z,98090.72
2023-11-14T01:14:31.915Z,98097.91
2023-11-14T01:16:58.775Z,98096.78
2023-11-14T01:19:25.636Z,98106.88
2023-11-14T01:21:53.317Z,98107.81
2023-11-14T01:24:20.255Z,98119.47
2023-11-14T01:26:47.119Z,98120.75
2023-11-14T01:29:14.036Z,98115.00
2023-11-14T01:31:40.813Z,98113.88
2023-11-14T01:34:07.666Z,98111.97
2023-11-14T01:36:34.507Z,98111.97
2023-11-14T01:39:01.309Z,98114.19
2023-11-14T01:41:28.204Z,98104.94
2023-11-14T01:43:55.094Z,98108.75
2023-11-14T01:46:22.931Z,98116.44
2023-11-14T01:48:53.392Z,98121.38
2023-11-14T01:51:23.677Z,98129.88
2023-11-14T01:53:51.940Z,98126.34
2023-11-14T01:56:20.635Z,98138.31
2023-11-14T01:58:50.786Z,98126.66
2023-11-14T02:01:19.937Z,98125.06
2023-11-14T02:03:46.767Z,98115.16
2023-11-14T02:06:13.743Z,98129.03
2023-11-14T02:08:41.813Z,98125.38
2023-11-14T02:11:08.899Z,98117.56
2023-11-14T02:13:36.201Z,98127.31
2023-11-14T02:16:03.733Z,98133.22
2023-11-14T02:18:30.665Z,98135.59
2023-11-14T02:20:58.024Z,98129.53
2023-11-14T02:23:29.889Z,98141.69
2023-11-14T02:25:57.399Z,98145.69
2023-11-14T02:28:24.691Z,98148.06
2023-11-14T02:30:52.036Z,98144.88
2023-11-14T02:33:18.877Z,98143.91
2023-11-14T02:35:45.670Z,98145.03
2023-11-14T02:38:12.498Z,98142.00
2023-11-14T02:40:39.510Z,98129.22
2023-11-14T02:43:06.409Z,98121.38
2023-11-14T02:45:33.377Z,98124.44
2023-11-14T02:48:02.438Z,98107.03
2023-11-14T02:50:51.613Z,98099.66
2023-11-14T02:53:22.769Z,98099.34
2023-11-14T02:55:52.140Z,98103.66
2023-11-14T02:58:20.707Z,98114.03
2023-11-14T03:00:53.033Z,98114.88
2023-11-14T03:03:21.786Z,98122.66
2023-11-14T03:05:49.056Z,98137.53
2023-11-14T03:08:16.472Z,98142.47
2023-11-14T03:10:46.657Z,98149.81
2023-11-14T03:13:13.689Z,98145.19
2023-11-14T03:15:41.177Z,98150.44
2023-11-14T03:18:08.354Z,98161.63
2023-11-14T03:20:35.865Z,98157.97
2023-11-14T03:23:04.583Z,98165.63
2023-11-14T03:25:32.217Z,98152.34
2023-11-14T03:27:59.956Z,98157.00
2023-11-14T03:30:27.683Z,98162.91
2023-11-14T03:32:54.653Z,98169.94
2023-11-14T03:35:21.672Z,98160.97
2023-11-14T03:37:48.431Z,98172.66
2023-11-14T03:40:15.587Z,98187.63
2023-11-14T03:42:42.721Z,98186.53
2023-11-14T03:45:09.902Z,98191.00
2023-11-14T03:47:36.760Z,98202.00
2023-11-14T03:50:05.013Z,98208.41
2023-11-14T03:52:32.715Z,98213.53
2023-11-14T03:54:59.551Z,98211.31
2023-11-14T03:57:26.330Z,98203.34
2023-11-14T03:59:53.077Z,98204.59
2023-11-14T04:02:19.976Z,98215.16
2023-11-14T04:04:46.855Z,98210.97
2023-11-14T04:07:15.523Z,98222.31
2023-11-14T04:09:42.459Z,98226.34
2023-11-14T04:12:09.720Z,98227.59
2023-11-14T04:14:36.694Z,98223.75
2023-11-14T04:17:04.841Z,98221.38
2023-11-14T04:19:31.986Z,98217.56
2023-11-14T04:21:58.954Z,98213.72
2023-11-14T04:24:25.835Z,98205.56
2023-11-14T04:26:53.301Z,98208.59
2023-11-14T04:29:20.129Z,98216.72
2023-11-14T04:31:47.097Z,98222.16
2023-11-14T04:34:14.707Z,98219.44
2023-11-14T04:36:42.604Z,98226.00
2023-11-14T04:39:09.831Z,98220.56
2023-11-14T04:41:37.406Z,98221.69
2023-11-14T04:44:04.711Z,98230.94
2023-11-14T04:46:31.553Z,98225.84
2023-11-14T04:48:58.544Z,98223.44
2023-11-14T04:51:25.790Z,98227.28
2023-11-14T04:53:52.674Z,98231.09
2023-11-14T04:56:19.449Z,98238.13
2023-11-14T04:58:46.325Z,98249.00
2023-11-14T05:01:15.587Z,98260.66
2023-11-14T05:03:42.532Z,98258.25
2023-11-14T05:06:09.413Z,98255.88
2023-11-14T05:08:36.390Z,98247.41
2023-11-14T05:11:07.981Z,98245.81
2023-11-14T05:13:35.227Z,98241.81
2023-11-14T05:16:11.190Z,98233.97
2023-11-14T05:18:46.382Z,98242.13
2023-11-14T05:21:13.210Z,98238.94
2023-11-14T05:23:40.002Z,98260.34
2023-11-14T05:26:07.060Z,98260.66
2023-11-14T05:28:34.044Z,98250.28
2023-11-14T05:31:01.028Z,98258.09
2023-11-14T05:33:27.842Z,98270.56
2023-11-14T05:35:54.821Z,98264.31
2023-11-14T05:38:22.938Z,98274.41
2023-11-14T05:40:49.957Z,98267.38
2023-11-14T05:43:17.044Z,98269.75
2023-11-14T05:45:46.707Z,98258.91
2023-11-14T05:48:14.595Z,98247.56
2023-11-14T05:50:43.205Z,98251.09
2023-11-14T05:53:10.143Z,98250.59
2023-11-14T05:55:37.076Z,98255.69
2023-11-14T05:58:04.099Z,98260.94
2023-11-14T06:00:30.928Z,98260.16
2023-11-14T06:02:57.976Z,98253.31
2023-11-14T06:05:24.901Z,98254.41
2023-11-14T06:07:51.763Z,98248.97
2023-11-14T06:10:18.760Z,98250.09
2023-11-14T06:12:45.562Z,98257.75
2023-11-14T06:15:12.656Z,98248.50
2023-11-14T06:17:40.106Z,98243.69
2023-11-14T06:20:09.717Z,98245.94
2023-11-14T06:22:37.717Z,98253.91
2023-11-14T06:25:05.442Z,98256.31
2023-11-14T06:27:32.726Z,98245.59
2023-11-14T06:29:59.515Z,98250.53
2023-11-14T06:32:27.027Z,98258.69
2023-11-14T06:34:53.899Z,98274.16
2023-11-14T06:37:21.377Z,98280.69
2023-11-14T06:39:50.225Z,98278.78
2023-11-14T06:42:17.228Z,98270.16
2023-11-14T06:44:45.418Z,98249.09
2023-11-14T06:47:13.599Z,98264.94
2023-11-14T06:49:40.891Z,98275.94
2023-11-14T06:52:08.028Z,98267.97
2023-11-14T06:54:34.861Z,98263.03
2023-11-14T06:57:02.080Z,98279.31
2023-11-14T06:59:31.728Z,98289.53
2023-11-14T07:02:02.390Z,98296.25
2023-11-14T07:04:29.907Z,98299.78
2023-11-14T07:06:57.002Z,98300.72
2023-11-14T07:09:26.723Z,98315.28
2023-11-14T07:11:55.386Z,98318.81
2023-11-14T07:14:25.363Z,98318.19
2023-11-14T07:16:54.404Z,98311.94
2023-11-14T07:19:23.063Z,98304.25
2023-11-14T07:21:50.542Z,98306.69
2023-11-14T07:24:17.390Z,98288.94
2023-11-14T07:26:47.446Z,98279.69
2023-11-14T07:29:14.737Z,98297.56
2023-11-14T07:31:43.554Z,98303.19
2023-11-14T07:34:10.740Z,98289.41
2023-11-14T07:36:38.065Z,98304.28
2023-11-14T07:39:06.299Z,98300.28
2023-11-14T07:41:34.663Z,98338.63
2023-11-14T07:44:01.914Z,98324.25
2023-11-14T07:46:28.914Z,98333.03
2023-11-14T07:48:56.448Z,98321.84
2023-11-14T07:51:27.247Z,98329.38
2023-11-14T07:53:55.244Z,98324.09
2023-11-14T07:56:23.279Z,98325.06
2023-11-14T07:58:51.736Z,98317.09
2023-11-14T08:01:18.594Z,98317.22
2023-11-14T08:03:46.046Z,98326.81
2023-11-14T08:06:13.344Z,98337.06
2023-11-14T08:08:40.295Z,98359.94
2023-11-14T08:11:07.544Z,98362.50
2023-11-14T08:13:34.470Z,98358.81
2023-11-14T08:16:01.679Z,98376.41
2023-11-14T08:18:29.474Z,98380.91
2023-11-14T08:20:57.236Z,98369.38
2023-11-14T08:23:24.149Z,98355.31
2023-11-14T08:25:51.208Z,98343.34
2023-11-14T08:28:18.049Z,98348.75
2023-11-14T08:30:44.940Z,98353.56
2023-11-14T08:33:11.944Z,98339.84
2023-11-14T08:35:38.856Z,98333.28
2023-11-14T08:38:14.014Z,98319.84
2023-11-14T08:40:46.766Z,98313.94
2023-11-14T08:43:14.856Z,98318.06
2023-11-14T08:45:41.670Z,98338.53
2023-11-14T08:48:09.588Z,98320.13
2023-11-14T08:50:37.317Z,98324.44
2023-11-14T08:53:05.064Z,98335.28
2023-11-14T08:55:32.624Z,98360.72
2023-11-14T08:58:00.890Z,98350.66
2023-11-14T09:00:28.569Z,98333.19
2023-11-14T09:02:55.440Z,98345.84
2023-11-14T09:05:22.384Z,98337.53
2023-11-14T09:07:49.334Z,98321.53
2023-11-14T09:10:16.226Z,98301.69
2023-11-14T09:12:43.231Z,98308.22
2023-11-14T09:15:10.758Z,98300.84
2023-11-14T09:17:40.547Z,98317.94
2023-11-14T09:20:12.070Z,98310.25
2023-11-14T09:22:39.525Z,98321.13
2023-11-14T09:25:08.987Z,98325.94
2023-11-14T09:27:36.172Z,98324.97
2023-11-14T09:30:04.062Z,98327.53
2023-11-14T09:32:31.271Z,98349.16
2023-11-14T09:34:58.659Z,98345.97
2023-11-14T09:37:26.122Z,98346.63
2023-11-14T09:39:53.295Z,98352.84
2023-11-14T09:42:20.274Z,98355.56
2023-11-14T09:44:47.512Z,98345.03
2023-11-14T09:47:16.508Z,98351.59
2023-11-14T09:49:44.771Z,98350.59
2023-11-14T09:52:13.398Z,98356.84
2023-11-14T09:54:43.393Z,98354.13
2023-11-14T09:57:12.859Z,98360.69
2023-11-14T09:59:44.399Z,98361.81
2023-11-14T10:02:12.518Z,98366.13
2023-11-14T10:04:45.651Z,98356.84
2023-11-14T10:07:20.576Z,98357.16
2023-11-14T10:09:52.041Z,98356.38
2023-11-14T10:12:38.762Z,98357.16
2023-11-14T10:15:08.274Z,98312.50
2023-11-14T10:17:47.979Z,98316.03
2023-11-14T10:20:18.294Z,98317.94
2023-11-14T10:23:04.117Z,98332.03
2023-11-14T10:25:34.515Z,98328.19
2023-11-14T10:28:08.243Z,98318.09
2023-11-14T10:30:54.471Z,98327.88
2023-11-14T10:33:41.138Z,98320.19
2023-11-14T10:36:11.555Z,98338.09
2023-11-14T10:38:38.395Z,98339.81
2023-11-14T10:41:05.562Z,98346.69
2023-11-14T10:43:36.287Z,98348.28
2023-11-14T10:46:14.945Z,98349.75
2023-11-14T10:48:43.282Z,98338.22
2023-11-14T10:51:12.848Z,98344.59
2023-11-14T10:53:43.722Z,98332.91
2023-11-14T10:56:13.506Z,98329.72
2023-11-14T10:58:41.405Z,98322.66
2023-11-14T11:01:09.376Z,98300.88
2023-11-14T11:03:38.051Z,98300.09
2023-11-14T11:06:06.905Z,98291.59
2023-11-14T11:08:33.736Z,98270.28
2023-11-14T11:11:04.314Z,98248.31
2023-11-14T11:13:31.734Z,98236.38
2023-11-14T11:15:59.002Z,98222.66
2023-11-14T11:18:37.385Z,98198.97
2023-11-14T11:21:15.382Z,98203.94
2023-11-14T11:24:11.954Z,98177.28
2023-11-14T11:27:22.113Z,98154.56
2023-11-14T11:29:55.682Z,98150.25
2023-11-14T11:32:31.542Z,98144.13
2023-11-14T11:35:19.198Z,98154.81
2023-11-14T11:37:53.975Z,98158.84
2023-11-14T11:40:27.228Z,98173.44
2023-11-14T11:43:16.350Z,98171.84
2023-11-14T11:45:51.092Z,98168.66
2023-11-14T11:48:37.196Z,98164.00
2023-11-14T11:51:22.975Z,98170.88
2023-11-14T11:53:53.188Z,98165.34
2023-11-14T11:57:08.414Z,98168.38
2023-11-14T11:59:41.590Z,98151.22
2023-11-14T12:02:13.443Z,98142.91
2023-11-14T12:04:41.893Z,98149.03
2023-11-14T12:07:10.195Z,98152.72
2023-11-14T12:09:38.424Z,98134.22
2023-11-14T12:12:05.983Z,98120.44
2023-11-14T12:14:33.018Z,98125.72
2023-11-14T12:17:01.106Z,98112.09
2023-11-14T12:19:28.441Z,98105.69
2023-11-14T12:21:55.980Z,98106.00
2023-11-14T12:24:23.698Z,98111.00
2023-11-14T12:26:51.182Z,98121.22
2023-11-14T12:29:19.296Z,98126.47
2023-11-14T12:31:48.738Z,98129.63
2023-11-14T12:34:33.003Z,98122.00
2023-11-14T12:37:11.011Z,98123.94
2023-11-14T12:39:38.056Z,98110.28
2023-11-14T12:42:05.783Z,98118.81
2023-11-14T12:44:37.324Z,98137.78
2023-11-14T12:47:06.943Z,98135.41
2023-11-14T12:49:34.572Z,98118.00
2023-11-14T12:52:03.190Z,98118.69
2023-11-14T12:54:30.276Z,98107.78
2023-11-14T12:56:57.285Z,98090.41
2023-11-14T12:59:25.559Z,98083.34
2023-11-14T13:01:52.988Z,98079.69
2023-11-14T13:04:20.277Z,98064.00
2023-11-14T13:06:48.873Z,98060.59
2023-11-14T13:09:18.164Z,98066.19
2023-11-14T13:11:46.121Z,98066.97
2023-11-14T13:14:14.690Z,98077.88
2023-11-14T13:16:44.336Z,98073.56
2023-11-14T13:19:12.676Z,98065.97
2023-11-14T13:21:39.991Z,98069.59
2023-11-14T13:24:08.290Z,98066.28
2023-11-14T13:26:37.833Z,98065.25
2023-11-14T13:29:06.079Z,98056.16
2023-11-14T13:31:33.510Z,98046.41
2023-11-14T13:34:00.834Z,98057.16
2023-11-14T13:36:28.950Z,98057.38
2023-11-14T13:38:56.141Z,98061.38
2023-11-14T13:41:23.729Z,98042.63
2023-11-14T13:43:50.735Z,98039.13
2023-11-14T13:46:26.429Z,98028.53
2023-11-14T13:48:56.700Z,98059.63
2023-11-14T13:51:24.770Z,98058.22
2023-11-14T13:53:52.402Z,98048.81
2023-11-14T13:56:20.394Z,98044.97
2023-11-14T13:58:47.591Z,98051.09
2023-11-14T14:01:15.884Z,98053.81
2023-11-14T14:03:43.059Z,98055.59
2023-11-14T14:06:10.724Z,98049.03
2023-11-14T14:08:38.446Z,98057.41
2023-11-14T14:11:08.918Z,98048.19
2023-11-14T14:13:36.367Z,98033.28
2023-11-14T14:16:04.648Z,98018.44
2023-11-14T14:18:32.769Z,98010.59
2023-11-14T14:21:05.055Z,97999.72
2023-11-14T14:23:33.100Z,97995.53
2023-11-14T14:26:01.455Z,98001.44
2023-11-14T14:28:33.990Z,98005.28
2023-11-14T14:31:04.674Z,98001.75
2023-11-14T14:33:32.308Z,97998.34
2023-11-14T14:35:59.260Z,97991.78
2023-11-14T14:38:26.314Z,98005.41
2023-11-14T14:40:56.142Z,98002.78
2023-11-14T14:43:30.271Z,98006.50
2023-11-14T14:45:57.783Z,98011.47
2023-11-14T14:48:29.997Z,98020.31
2023-11-14T14:50:56.877Z,98004.66
2023-11-14T14:53:25.066Z,98002.59
2023-11-14T14:55:52.440Z,98007.94
2023-11-14T14:58:21.204Z,98001.69
2023-11-14T15:00:48.759Z,97999.16
2023-11-14T15:03:21.232Z,98000.97
2023-11-14T15:05:53.513Z,97987.25
2023-11-14T15:08:21.538Z,97981.34
2023-11-14T15:10:50.204Z,97974.31
2023-11-14T15:13:17.985Z,97979.28
2023-11-14T15:15:45.360Z,97971.66
2023-11-14T15:18:13.145Z,97961.13
2023-11-14T15:20:43.377Z,97959.97
2023-11-14T15:23:10.339Z,97955.22
2023-11-14T15:25:39.823Z,97938.75
2023-11-14T15:28:06.746Z,97938.28
2023-11-14T15:30:33.557Z,97928.06
2023-11-14T15:33:00.623Z,97920.56
2023-11-14T15:35:28.085Z,97919.66
2023-11-14T15:37:56.706Z,97910.22
2023-11-14T15:40:24.024Z,97916.00
2023-11-14T15:42:56.862Z,97922.69
2023-11-14T15:45:28.005Z,97917.91
2023-11-14T15:47:54.905Z,97918.59
2023-11-14T15:50:22.027Z,97922.91
2023-11-14T15:52:49.072Z,97929.00
2023-11-14T15:55:16.597Z,97918.47
2023-11-14T15:57:43.464Z,97918.47
2023-11-14T16:00:12.030Z,97907.59
2023-11-14T16:02:39.086Z,97908.59
2023-11-14T16:05:06.692Z,97908.59
2023-11-14T16:07:35.198Z,97884.56
2023-11-14T16:10:03.262Z,97900.97
2023-11-14T16:12:30.250Z,97893.81
2023-11-14T16:14:58.511Z,97895.06
2023-11-14T16:17:26.810Z,97887.69
2023-11-14T16:19:54.110Z,97889.50
2023-11-14T16:22:21.144Z,97876.56
2023-11-14T16:24:48.018Z,97874.19
2023-11-14T16:27:15.687Z,97864.31
2023-11-14T16:29:42.977Z,97866.91
2023-11-14T16:32:10.379Z,97875.84
2023-11-14T16:34:37.635Z,97873.13
2023-11-14T16:37:05.453Z,97872.34
2023-11-14T16:39:32.369Z,97884.50
2023-11-14T16:41:59.215Z,97878.59
2023-11-14T16:44:27.046Z,97874.31
2023-11-14T16:46:53.956Z,97861.69
2023-11-14T16:49:21.088Z,97867.53
2023-11-14T16:51:48.507Z,97865.47
2023-11-14T16:54:15.399Z,97858.75
2023-11-14T16:56:48.111Z,97865.38
2023-11-14T16:59:15.600Z,97862.53
2023-11-14T17:01:47.750Z,97843.03
2023-11-14T17:04:15.016Z,97837.59
2023-11-14T17:06:41.971Z,97850.41
2023-11-14T17:09:08.943Z,97838.72
2023-11-14T17:11:35.958Z,97838.22
2023-11-14T17:14:02.911Z,97832.91
2023-11-14T17:16:30.046Z,97840.28
2023-11-14T17:18:56.880Z,97834.84
2023-11-14T17:21:24.376Z,97837.41
2023-11-14T17:23:52.428Z,97832.06
2023-11-14T17:26:21.821Z,97834.34
2023-11-14T17:28:49.105Z,97834.53
2023-11-14T17:31:15.988Z,97839.50
2023-11-14T17:33:42.860Z,97834.88
2023-11-14T17:36:09.882Z,97825.47
2023-11-14T17:38:36.783Z,97827.25
2023-11-14T17:41:04.733Z,97835.38
2023-11-14T17:43:31.725Z,97836.97
2023-11-14T17:45:59.106Z,97831.88
2023-11-14T17:48:26.389Z,97825.66
2023-11-14T17:50:54.305Z,97830.59
2023-11-14T17:53:21.443Z,97833.63
2023-11-14T17:55:48.433Z,97826.78
2023-11-14T17:58:15.371Z,97815.44
2023-11-14T18:00:42.414Z,97806.19
2023-11-14T18:03:09.462Z,97804.31
2023-11-14T18:05:36.523Z,97806.75
2023-11-14T18:08:07.691Z,97809.66
2023-11-14T18:10:37.169Z,97810.78
2023-11-14T18:13:03.990Z,97810.13
2023-11-14T18:15:32.896Z,97809.31
2023-11-14T18:18:00.755Z,97809.28
2023-11-14T18:20:28.913Z,97823.59
2023-11-14T18:22:56.039Z,97804.88
2023-11-14T18:25:23.038Z,97798.13
2023-11-14T18:27:50.146Z,97807.19
2023-11-14T18:30:17.663Z,97797.59
2023-11-14T18:32:46.162Z,97796.59
2023-11-14T18:35:14.630Z,97790.50
2023-11-14T18:37:41.610Z,97787.94
2023-11-14T18:40:09.037Z,97796.66
2023-11-14T18:42:41.166Z,97803.03
2023-11-14T18:45:09.162Z,97798.88
2023-11-14T18:47:37.832Z,97800.13
2023-11-14T18:50:06.549Z,97802.84
2023-11-14T18:52:36.254Z,97799.34
2023-11-14T18:55:05.161Z,97804.44
2023-11-14T18:57:32.136Z,97782.84
2023-11-14T18:59:59.038Z,97781.72
2023-11-14T19:02:26.780Z,97796.06
2023-11-14T19:04:53.894Z,97805.34
2023-11-14T19:07:25.389Z,97842.59
2023-11-14T19:09:55.121Z,97800.72
2023-11-14T19:12:24.280Z,97821.34
2023-11-14T19:14:52.773Z,97821.34
2023-11-14T19:17:21.592Z,97830.94
2023-11-14T19:19:48.946Z,97848.34
2023-11-14T19:22:42.630Z,97819.13
2023-11-14T19:27:32.368Z,97837.88
2023-11-14T19:29:59.340Z,97831.19
2023-11-14T19:32:26.647Z,97826.63
2023-11-14T19:34:55.142Z,97831.72
2023-11-14T19:37:22.268Z,97838.28
2023-11-14T19:39:49.118Z,97834.31
2023-11-14T19:42:18.904Z,97836.69
2023-11-14T19:44:46.295Z,97847.34
2023-11-14T19:47:13.362Z,97840.00
2023-11-14T19:49:45.128Z,97841.25
2023-11-14T19:52:15.631Z,97846.38
2023-11-14T19:54:44.910Z,97861.19
2023-11-14T19:57:11.888Z,97858.47
2023-11-14T19:59:39.214Z,97855.44
2023-11-14T20:02:08.167Z,97876.06
2023-11-14T20:04:35.263Z,97853.31
2023-11-14T20:07:02.186Z,97865.78
2023-11-14T20:09:30.056Z,97874.41
2023-11-14T20:11:57.864Z,97866.72
2023-11-14T20:14:24.876Z,97871.81
2023-11-14T20:16:51.881Z,97865.28
2023-11-14T20:19:19.488Z,97880.44
2023-11-14T20:21:46.975Z,97894.03
2023-11-14T20:24:14.130Z,97884.09
2023-11-14T20:26:41.849Z,97882.50
2023-11-14T20:29:09.340Z,97895.28
2023-11-14T20:31:36.442Z,97888.25
2023-11-14T20:34:20.231Z,97885.53
2023-11-14T20:36:48.054Z,97879.31
2023-11-14T20:39:18.722Z,97883.94
2023-11-14T20:41:46.242Z,97898.00
2023-11-14T20:44:13.159Z,97902.75
2023-11-14T20:46:40.602Z,97901.19
2023-11-14T20:49:07.392Z,97895.47
2023-11-14T20:51:34.226Z,97907.53
2023-11-14T20:54:01.140Z,97905.94
2023-11-14T20:56:30.417Z,97913.63
2023-11-14T20:58:57.682Z,97911.22
2023-11-14T21:01:26.672Z,97918.25
2023-11-14T21:03:54.787Z,97946.34
2023-11-14T21:06:21.988Z,97942.97
2023-11-14T21:08:49.009Z,97959.28
2023-11-14T21:11:16.255Z,97964.38
2023-11-14T21:13:46.296Z,97975.91
2023-11-14T21:16:13.534Z,97983.25
2023-11-14T21:18:41.819Z,97999.06
2023-11-14T21:21:09.529Z,98003.72
2023-11-14T21:23:39.735Z,98006.44
2023-11-14T21:26:09.936Z,98018.09
2023-11-14T21:28:37.996Z,98027.06
2023-11-14T21:31:08.298Z,98018.91
2023-11-14T21:33:37.090Z,98015.72
2023-11-14T21:36:10.276Z,98024.19
2023-11-14T21:38:38.414Z,98024.84
2023-11-14T21:41:05.569Z,98029.78
2023-11-14T21:43:32.910Z,98032.84
2023-11-14T21:45:59.770Z,98039.25
2023-11-14T21:48:26.899Z,98033.34
2023-11-14T21:50:54.478Z,98033.19
2023-11-14T21:53:22.129Z,98035.44
2023-11-14T21:55:49.331Z,98029.84
2023-11-14T21:58:16.405Z,98043.28
2023-11-14T22:00:43.213Z,98057.50
2023-11-14T22:03:10.532Z,98062.94
2023-11-14T22:05:37.531Z,98059.41
2023-11-14T22:08:04.812Z,98059.09
2023-11-14T22:10:31.816Z,98056.88
2023-11-14T22:12:58.653Z,98058.47
2023-11-14T22:15:25.862Z,98065.63
2023-11-14T22:17:53.140Z,98068.81
2023-11-14T22:20:20.246Z,98070.88
2023-11-14T22:22:50.480Z,98083.81
2023-11-14T22:25:17.602Z,98100.09
2023-11-14T22:27:44.585Z,98097.88
2023-11-14T22:30:12.926Z,98091.31
2023-11-14T22:32:40.089Z,98126.63
2023-11-14T22:35:07.854Z,98122.31
2023-11-14T22:37:35.071Z,98136.22
2023-11-14T22:40:03.530Z,98132.22
2023-11-14T22:42:30.716Z,98142.31
2023-11-14T22:44:58.928Z,98164.34
2023-11-14T22:47:26.504Z,98183.69
2023-11-14T22:49:57.282Z,98166.56
2023-11-14T22:52:24.198Z,98173.13
2023-11-14T22:54:51.406Z,98174.41
2023-11-14T22:57:20.201Z,98191.00
2023-11-14T22:59:48.575Z,98203.63
2023-11-14T23:02:18.253Z,98185.75
2023-11-14T23:04:45.404Z,98217.06
2023-11-14T23:07:16.028Z,98225.84
2023-11-14T23:09:42.880Z,98229.69
2023-11-14T23:12:12.453Z,98232.22
2023-11-14T23:14:39.438Z,98244.69
2023-11-14T23:17:06.560Z,98243.56
2023-11-14T23:19:34.310Z,98259.84
2023-11-14T23:22:02.735Z,98253.31
2023-11-14T23:24:30.780Z,98260.34
2023-11-14T23:26:57.922Z,98271.69
2023-11-14T23:29:26.466Z,98257.31
2023-11-14T23:31:53.315Z,98261.63
2023-11-14T23:34:20.200Z,98258.59
2023-11-14T23:36:47.259Z,98269.44
2023-11-14T23:39:14.523Z,98277.94
2023-11-14T23:41:42.037Z,98290.69
2023-11-14T23:44:11.168Z,98299.16
2023-11-14T23:46:39.466Z,98301.06
2023-11-14T23:49:09.134Z,98292.44
2023-11-14T23:51:36.761Z,98297.09
2023-11-14T23:54:05.506Z,98297.88
2023-11-14T23:56:33.471Z,98300.28
2023-11-14T23:59:01.899Z,98310.81
